Chahbahar, Iran
Current Conditions -  °F | °C
As of 7:00 AM on Friday 28 Nov 2014 (Local Time) from OIZI Reporting Station
Clear Clear  
Wind Chill: 59°   Ceiling: Unl
Heat Index: 59°   Visibility: 6mi
Dew Point: 39°   Wind: 5mph
Humidity: 48%   Direction: 50°NE
Pressure: 30.06"   Gusts: NA
Location:  25.28°N, 60.62°E
Report Text: OIZI 280400Z 05004KT CAVOK 15/04 Q1018
Loading
Personal Weather Stations






























Interactive Weather Map New forecast layout! Learn more

10-Day Weather Forecast

Advertisements
Track Severe Weather on mobile